createdAt,value
2022-10-20T00:01:51.376Z,6.71
2022-10-20T00:04:17.953Z,6.76
2022-10-20T00:06:45.974Z,6.70
2022-10-20T00:09:12.572Z,6.50
2022-10-20T00:11:39.277Z,6.33
2022-10-20T00:14:06.275Z,6.42
2022-10-20T00:16:36.456Z,6.33
2022-10-20T00:19:03.763Z,6.30
2022-10-20T00:21:31.627Z,6.28
2022-10-20T00:24:01.163Z,6.09
2022-10-20T00:26:29.384Z,6.16
2022-10-20T00:28:56.186Z,6.35
2022-10-20T00:31:24.014Z,6.30
2022-10-20T00:33:50.805Z,6.25
2022-10-20T00:36:19.656Z,6.35
2022-10-20T00:38:46.250Z,6.42
2022-10-20T00:41:14.760Z,6.50
2022-10-20T00:43:46.296Z,6.51
2022-10-20T00:46:15.357Z,6.41
2022-10-20T00:48:45.582Z,6.37
2022-10-20T00:51:14.843Z,6.42
2022-10-20T00:53:43.408Z,6.43
2022-10-20T00:56:10.167Z,6.24
2022-10-20T00:58:38.515Z,6.16
2022-10-20T01:01:05.214Z,6.22
2022-10-20T01:03:40.504Z,6.08
2022-10-20T01:06:07.147Z,6.02
2022-10-20T01:08:33.914Z,6.05
2022-10-20T01:11:09.558Z,6.08
2022-10-20T01:13:44.402Z,6.17
2022-10-20T01:16:19.288Z,6.13
2022-10-20T01:18:53.740Z,6.06
2022-10-20T01:21:38.433Z,6.01
2022-10-20T01:24:32.279Z,5.98
2022-10-20T01:27:31.087Z,5.81
2022-10-20T01:30:04.980Z,5.72
2022-10-20T01:32:42.075Z,5.60
2022-10-20T01:35:13.092Z,5.71
2022-10-20T01:37:49.468Z,5.60
2022-10-20T01:40:25.523Z,5.48
2022-10-20T01:42:56.645Z,5.43
2022-10-20T01:45:27.124Z,5.45
2022-10-20T01:47:54.670Z,5.35
2022-10-20T01:50:22.448Z,5.45
2022-10-20T01:52:48.996Z,5.47
2022-10-20T01:55:18.085Z,5.50
2022-10-20T01:57:58.685Z,5.51
2022-10-20T02:00:25.625Z,5.47
2022-10-20T02:03:17.645Z,5.49
2022-10-20T02:05:52.999Z,5.40
2022-10-20T02:08:30.385Z,5.32
2022-10-20T02:10:59.927Z,5.29
2022-10-20T02:13:30.056Z,5.23
2022-10-20T02:15:58.939Z,5.22
2022-10-20T02:18:30.097Z,5.01
2022-10-20T02:21:00.611Z,4.96
2022-10-20T02:23:33.837Z,4.83
2022-10-20T02:26:05.867Z,4.86
2022-10-20T02:28:37.629Z,4.84
2022-10-20T02:31:05.006Z,4.78
2022-10-20T02:33:32.438Z,4.85
2022-10-20T02:36:00.478Z,4.69
2022-10-20T02:38:27.052Z,4.71
2022-10-20T02:40:53.628Z,4.83
2022-10-20T02:43:20.192Z,4.82
2022-10-20T02:45:48.269Z,4.62
2022-10-20T02:48:14.807Z,4.54
2022-10-20T02:50:41.352Z,4.40
2022-10-20T02:53:07.930Z,4.38
2022-10-20T02:55:34.510Z,4.44
2022-10-20T02:58:01.284Z,4.47
2022-10-20T03:00:27.887Z,4.46
2022-10-20T03:02:55.763Z,4.57
2022-10-20T03:05:22.335Z,4.51
2022-10-20T03:07:48.884Z,4.36
2022-10-20T03:10:15.502Z,4.47
2022-10-20T03:12:42.049Z,4.50
2022-10-20T03:15:09.124Z,4.40
2022-10-20T03:17:35.983Z,4.40
2022-10-20T03:20:05.749Z,4.35
2022-10-20T03:22:32.287Z,4.44
2022-10-20T03:24:58.846Z,4.43
2022-10-20T03:27:25.387Z,4.43
2022-10-20T03:29:51.970Z,4.50
2022-10-20T03:32:18.492Z,4.50
2022-10-20T03:34:45.050Z,4.48
2022-10-20T03:37:13.014Z,4.39
2022-10-20T03:39:39.596Z,4.26
2022-10-20T03:42:06.110Z,4.29
2022-10-20T03:44:32.677Z,4.18
2022-10-20T03:46:59.222Z,4.17
2022-10-20T03:49:25.818Z,4.10
2022-10-20T03:51:52.375Z,4.04
2022-10-20T03:54:20.292Z,4.11
2022-10-20T03:56:46.868Z,4.13
2022-10-20T03:59:13.419Z,4.18
2022-10-20T04:01:43.940Z,4.26
2022-10-20T04:04:10.528Z,4.32
2022-10-20T04:06:37.209Z,4.18
2022-10-20T04:09:04.406Z,4.27
2022-10-20T04:11:32.985Z,4.26
2022-10-20T04:13:59.729Z,4.28
2022-10-20T04:16:26.273Z,4.12
2022-10-20T04:18:53.066Z,4.07
2022-10-20T04:21:19.640Z,4.08
2022-10-20T04:23:46.173Z,4.15
2022-10-20T04:26:14.865Z,4.09
2022-10-20T04:28:43.143Z,4.11
2022-10-20T04:31:09.753Z,4.14
2022-10-20T04:33:36.572Z,4.17
2022-10-20T04:36:05.882Z,4.13
2022-10-20T04:38:33.954Z,4.23
2022-10-20T04:41:04.083Z,4.21
2022-10-20T04:43:30.931Z,4.15
2022-10-20T04:46:03.976Z,4.21
2022-10-20T04:48:33.744Z,4.25
2022-10-20T04:51:01.507Z,4.24
2022-10-20T04:53:28.073Z,4.20
2022-10-20T04:55:55.252Z,4.28
2022-10-20T04:58:21.818Z,4.35
2022-10-20T05:00:48.422Z,4.32
2022-10-20T05:03:16.316Z,4.29
2022-10-20T05:05:42.862Z,4.36
2022-10-20T05:08:09.405Z,4.28
2022-10-20T05:10:36.777Z,4.22
2022-10-20T05:13:03.467Z,4.27
2022-10-20T05:15:30.025Z,4.34
2022-10-20T05:17:57.679Z,4.39
2022-10-20T05:20:25.717Z,4.43
2022-10-20T05:22:52.258Z,4.43
2022-10-20T05:25:35.486Z,4.41
2022-10-20T05:28:03.776Z,4.34
2022-10-20T05:30:30.373Z,4.21
2022-10-20T05:32:57.119Z,4.04
2022-10-20T05:35:25.009Z,4.09
2022-10-20T05:37:51.563Z,4.18
2022-10-20T05:40:18.092Z,4.12
2022-10-20T05:42:44.675Z,4.14
2022-10-20T05:45:11.502Z,4.02
2022-10-20T05:47:38.127Z,3.91
2022-10-20T05:50:05.355Z,3.97
2022-10-20T05:52:35.032Z,3.98
2022-10-20T05:55:01.748Z,4.10
2022-10-20T05:57:28.300Z,3.97
2022-10-20T05:59:54.859Z,4.09
2022-10-20T06:02:21.443Z,3.93
2022-10-20T06:04:48.078Z,4.06
2022-10-20T06:07:14.616Z,4.03
2022-10-20T06:09:42.580Z,4.08
2022-10-20T06:14:40.578Z,3.97
2022-10-20T06:17:07.163Z,3.95
2022-10-20T06:19:33.738Z,3.88
2022-10-20T06:22:03.939Z,3.88
2022-10-20T06:24:33.388Z,3.88
2022-10-20T06:27:01.305Z,3.97
2022-10-20T06:29:28.058Z,4.06
2022-10-20T06:31:55.025Z,4.13
2022-10-20T06:34:23.868Z,4.19
2022-10-20T06:36:51.599Z,4.28
2022-10-20T06:39:19.792Z,4.37
2022-10-20T06:41:47.700Z,4.39
2022-10-20T06:44:15.743Z,4.37
2022-10-20T06:46:42.295Z,4.48
2022-10-20T06:49:13.051Z,4.40
2022-10-20T06:51:40.263Z,4.56
2022-10-20T06:54:07.113Z,4.73
2022-10-20T06:56:35.450Z,4.83
2022-10-20T06:59:02.864Z,4.93
2022-10-20T07:01:32.583Z,5.06
2022-10-20T07:04:01.219Z,5.10
2022-10-20T07:06:30.493Z,5.16
2022-10-20T07:08:58.169Z,5.29
2022-10-20T07:11:27.813Z,5.36
2022-10-20T07:13:54.905Z,5.38
2022-10-20T07:16:23.404Z,5.29
2022-10-20T07:18:51.808Z,5.29
2022-10-20T07:21:20.322Z,5.32
2022-10-20T07:23:47.648Z,5.22
2022-10-20T07:26:16.259Z,5.30
2022-10-20T07:28:44.865Z,5.33
2022-10-20T07:31:13.964Z,5.51
2022-10-20T07:33:41.235Z,5.63
2022-10-20T07:36:13.747Z,5.79
2022-10-20T07:38:40.446Z,5.96
2022-10-20T07:41:07.097Z,5.91
2022-10-20T07:43:33.640Z,5.94
2022-10-20T07:46:00.184Z,6.02
2022-10-20T07:48:26.750Z,6.12
2022-10-20T07:50:53.325Z,6.29
2022-10-20T07:53:21.233Z,6.46
2022-10-20T07:55:47.759Z,6.61
2022-10-20T07:58:14.340Z,6.84
2022-10-20T08:00:41.195Z,7.05
2022-10-20T08:03:09.369Z,7.31
2022-10-20T08:05:35.886Z,7.51
2022-10-20T08:08:02.655Z,7.62
2022-10-20T08:10:30.532Z,7.89
2022-10-20T08:12:57.095Z,8.09
2022-10-20T08:15:23.703Z,8.34
2022-10-20T08:17:50.257Z,8.51
2022-10-20T08:23:00.307Z,8.72
2022-10-20T08:25:27.049Z,8.75
2022-10-20T08:27:54.984Z,8.81
2022-10-20T08:30:24.233Z,8.80
2022-10-20T08:32:51.267Z,8.91
2022-10-20T08:35:18.151Z,9.07
2022-10-20T08:37:44.723Z,9.28
2022-10-20T08:40:16.298Z,9.41
2022-10-20T08:42:44.375Z,9.60
2022-10-20T08:45:16.781Z,9.80
2022-10-20T08:47:44.787Z,9.98
2022-10-20T08:50:13.746Z,10.12
2022-10-20T08:52:41.990Z,10.14
2022-10-20T08:55:19.158Z,10.31
2022-10-20T08:57:48.820Z,10.50
2022-10-20T09:00:19.929Z,10.69
2022-10-20T09:02:47.839Z,10.79
2022-10-20T09:05:19.201Z,10.90
2022-10-20T09:07:46.400Z,10.71
2022-10-20T09:10:25.008Z,10.87
2022-10-20T09:12:52.179Z,10.90
2022-10-20T09:15:21.741Z,10.87
2022-10-20T09:17:50.761Z,11.00
2022-10-20T09:20:21.590Z,11.06
2022-10-20T09:22:48.421Z,11.21
2022-10-20T09:25:17.647Z,11.28
2022-10-20T09:27:44.530Z,11.32
2022-10-20T09:30:16.848Z,11.41
2022-10-20T09:32:47.284Z,11.52
2022-10-20T09:35:25.961Z,11.73
2022-10-20T09:38:01.472Z,11.88
2022-10-20T09:40:28.151Z,11.87
2022-10-20T09:42:56.842Z,11.97
2022-10-20T09:45:26.824Z,12.02
2022-10-20T09:47:59.093Z,11.94
2022-10-20T09:50:28.793Z,11.95
2022-10-20T09:52:56.645Z,12.12
2022-10-20T09:55:28.962Z,12.27
2022-10-20T09:57:57.750Z,12.23
2022-10-20T10:00:36.865Z,12.29
2022-10-20T10:03:17.609Z,12.38
2022-10-20T10:05:44.130Z,12.42
2022-10-20T10:08:14.369Z,12.45
2022-10-20T10:10:41.898Z,12.55
2022-10-20T10:13:24.715Z,12.52
2022-10-20T10:16:01.031Z,12.50
2022-10-20T10:18:29.321Z,12.67
2022-10-20T10:21:01.740Z,12.74
2022-10-20T10:23:30.326Z,12.88
2022-10-20T10:26:00.646Z,12.87
2022-10-20T10:28:32.855Z,12.99
2022-10-20T10:31:19.948Z,13.16
2022-10-20T10:33:49.047Z,13.14
2022-10-20T10:36:25.292Z,13.22
2022-10-20T10:38:51.865Z,13.22
2022-10-20T10:41:25.124Z,13.14
2022-10-20T10:44:00.384Z,13.30
2022-10-20T10:46:31.769Z,13.19
2022-10-20T10:49:19.888Z,13.37
2022-10-20T10:51:58.151Z,13.38
2022-10-20T10:54:37.508Z,13.37
2022-10-20T10:57:12.980Z,13.45
2022-10-20T10:59:43.395Z,13.42
2022-10-20T11:02:26.283Z,13.24
2022-10-20T11:05:24.523Z,13.17
2022-10-20T11:08:02.285Z,13.25
2022-10-20T11:10:34.876Z,13.19
2022-10-20T11:13:17.555Z,13.15
2022-10-20T11:15:59.342Z,13.20
2022-10-20T11:18:44.346Z,13.20
2022-10-20T11:21:22.528Z,13.14
2022-10-20T11:24:04.317Z,13.38
2022-10-20T11:26:33.776Z,13.43
2022-10-20T11:29:03.232Z,13.51
2022-10-20T11:31:34.448Z,13.57
2022-10-20T11:34:05.860Z,13.62
2022-10-20T11:36:40.184Z,13.79
2022-10-20T11:39:16.359Z,13.96
2022-10-20T11:41:48.121Z,14.09
2022-10-20T11:44:19.695Z,14.22
2022-10-20T11:46:50.015Z,14.26
2022-10-20T11:49:18.140Z,14.29
2022-10-20T11:52:11.614Z,14.30
2022-10-20T11:54:58.792Z,14.39
2022-10-20T11:57:39.988Z,14.29
2022-10-20T12:03:14.240Z,14.30
2022-10-20T12:06:10.186Z,14.37
2022-10-20T12:09:04.242Z,14.53
2022-10-20T12:11:38.129Z,14.57
2022-10-20T12:14:17.165Z,14.62
2022-10-20T12:17:11.484Z,14.64
2022-10-20T12:19:38.637Z,14.66
2022-10-20T12:22:07.257Z,14.68
2022-10-20T12:24:37.757Z,14.65
2022-10-20T12:27:20.616Z,14.60
2022-10-20T12:30:01.988Z,14.71
2022-10-20T12:32:52.851Z,14.59
2022-10-20T12:36:00.797Z,14.91
2022-10-20T12:38:29.090Z,15.05
2022-10-20T12:41:00.031Z,15.11
2022-10-20T12:43:31.211Z,15.06
2022-10-20T12:46:03.547Z,14.88
2022-10-20T12:48:35.631Z,14.65
2022-10-20T12:51:06.019Z,14.67
2022-10-20T12:53:33.067Z,14.79
2022-10-20T12:56:06.393Z,14.85
2022-10-20T12:58:34.321Z,14.83
2022-10-20T13:01:10.851Z,14.67
2022-10-20T13:03:45.365Z,14.50
2022-10-20T13:06:40.842Z,14.70
2022-10-20T13:09:23.811Z,14.79
2022-10-20T13:11:57.767Z,14.76
2022-10-20T13:14:35.817Z,14.69
2022-10-20T13:17:12.720Z,14.90
2022-10-20T13:19:46.352Z,15.03
2022-10-20T13:22:33.286Z,15.06
2022-10-20T13:25:01.397Z,15.05
2022-10-20T13:27:29.576Z,14.97
2022-10-20T13:29:56.549Z,15.10
2022-10-20T13:32:30.561Z,14.93
2022-10-20T13:35:01.531Z,15.03
2022-10-20T13:37:49.283Z,15.11
2022-10-20T13:40:24.375Z,15.02
2022-10-20T13:43:02.893Z,15.20
2022-10-20T13:45:43.050Z,15.29
2022-10-20T13:48:21.960Z,15.27
2022-10-20T13:50:56.774Z,15.16
2022-10-20T13:53:28.109Z,15.22
2022-10-20T13:55:59.199Z,15.17
2022-10-20T13:58:27.388Z,15.34
2022-10-20T14:01:00.408Z,15.34
2022-10-20T14:03:27.850Z,15.41
2022-10-20T14:05:54.444Z,15.33
2022-10-20T14:08:27.210Z,15.25
2022-10-20T14:10:56.855Z,14.79
2022-10-20T14:13:29.400Z,15.01
2022-10-20T14:15:58.978Z,15.10
2022-10-20T14:18:27.219Z,15.12
2022-10-20T14:20:56.249Z,15.12
2022-10-20T14:23:24.166Z,15.07
2022-10-20T14:25:51.856Z,15.03
2022-10-20T14:28:20.758Z,15.01
2022-10-20T14:30:50.401Z,14.86
2022-10-20T14:33:17.856Z,14.83
2022-10-20T14:35:50.444Z,14.85
2022-10-20T14:38:19.457Z,14.78
2022-10-20T14:40:51.361Z,14.74
2022-10-20T14:43:19.200Z,14.65
2022-10-20T14:45:55.392Z,14.69
2022-10-20T14:48:22.684Z,14.63
2022-10-20T14:50:49.392Z,14.49
2022-10-20T14:53:28.215Z,14.47
2022-10-20T14:55:55.303Z,14.32
2022-10-20T14:58:30.027Z,14.23
2022-10-20T15:01:23.936Z,14.32
2022-10-20T15:06:38.990Z,14.15
2022-10-20T15:09:05.660Z,14.04
2022-10-20T15:11:32.353Z,13.98
2022-10-20T15:14:00.217Z,13.97
2022-10-20T15:16:41.725Z,13.90
2022-10-20T15:19:25.846Z,13.85
2022-10-20T15:21:58.377Z,13.84
2022-10-20T15:24:24.919Z,13.82
2022-10-20T15:26:51.616Z,13.78
2022-10-20T15:29:18.722Z,13.68
2022-10-20T15:31:46.603Z,13.58
2022-10-20T15:34:13.166Z,13.58
2022-10-20T15:36:42.135Z,13.49
2022-10-20T15:39:09.449Z,13.48
2022-10-20T15:41:36.752Z,13.31
2022-10-20T15:44:12.165Z,13.25
2022-10-20T15:46:38.806Z,13.18
2022-10-20T15:49:06.731Z,13.06
2022-10-20T15:51:35.245Z,12.93
2022-10-20T15:54:02.591Z,12.86
2022-10-20T15:56:29.686Z,12.75
2022-10-20T15:58:56.251Z,12.56
2022-10-20T16:01:23.204Z,12.54
2022-10-20T16:03:50.163Z,12.49
2022-10-20T16:06:18.779Z,12.33
2022-10-20T16:08:47.324Z,12.26
2022-10-20T16:11:15.544Z,12.21
2022-10-20T16:13:42.696Z,12.16
2022-10-20T16:16:13.275Z,12.05
2022-10-20T16:18:39.865Z,11.91
2022-10-20T16:21:06.943Z,11.88
2022-10-20T16:23:40.597Z,11.79
2022-10-20T16:26:13.037Z,11.72
2022-10-20T16:28:39.925Z,11.62
2022-10-20T16:31:08.810Z,11.50
2022-10-20T16:33:35.923Z,11.45
2022-10-20T16:36:03.981Z,11.31
2022-10-20T16:38:31.021Z,11.31
2022-10-20T16:40:59.598Z,11.26
2022-10-20T16:43:26.133Z,11.19
2022-10-20T16:45:52.802Z,11.18
2022-10-20T16:48:20.375Z,11.17
2022-10-20T16:50:46.939Z,11.19
2022-10-20T16:53:13.801Z,11.16
2022-10-20T16:55:40.415Z,11.06
2022-10-20T16:58:08.300Z,10.99
2022-10-20T17:00:34.897Z,10.92
2022-10-20T17:03:01.462Z,10.93
2022-10-20T17:05:27.996Z,10.94
2022-10-20T17:07:54.533Z,10.94
2022-10-20T17:10:21.088Z,10.94
2022-10-20T17:12:47.628Z,10.86
2022-10-20T17:15:15.611Z,10.91
2022-10-20T17:17:42.183Z,10.88
2022-10-20T17:20:09.667Z,10.95
2022-10-20T17:22:36.349Z,10.86
2022-10-20T17:25:03.524Z,10.80
2022-10-20T17:27:30.079Z,10.82
2022-10-20T17:29:56.637Z,10.78
2022-10-20T17:32:24.520Z,10.74
2022-10-20T17:34:51.074Z,10.74
2022-10-20T17:37:17.635Z,10.59
2022-10-20T17:39:44.184Z,10.67
2022-10-20T17:42:10.733Z,10.61
2022-10-20T17:44:37.276Z,10.68
2022-10-20T17:47:03.809Z,10.72
2022-10-20T17:49:31.693Z,10.81
2022-10-20T17:51:58.192Z,10.84
2022-10-20T17:54:24.842Z,10.90
2022-10-20T17:56:51.386Z,10.93
2022-10-20T17:59:18.262Z,10.97
2022-10-20T18:01:44.812Z,11.00
2022-10-20T18:04:13.196Z,10.98
2022-10-20T18:06:42.449Z,10.95
2022-10-20T18:09:11.129Z,10.94
2022-10-20T18:11:39.331Z,10.88
2022-10-20T18:14:06.403Z,10.74
2022-10-20T18:16:34.534Z,10.63
2022-10-20T18:19:01.160Z,10.69
2022-10-20T18:21:29.229Z,10.73
2022-10-20T18:23:58.359Z,10.76
2022-10-20T18:26:25.088Z,10.78
2022-10-20T18:28:51.961Z,10.74
2022-10-20T18:31:20.102Z,10.70
2022-10-20T18:33:47.972Z,10.76
2022-10-20T18:36:16.110Z,10.74
2022-10-20T18:38:44.562Z,10.68
2022-10-20T18:41:14.902Z,10.57
2022-10-20T18:43:41.980Z,10.47
2022-10-20T18:46:08.987Z,10.38
2022-10-20T18:48:37.437Z,10.43
2022-10-20T18:51:05.800Z,10.42
2022-10-20T18:53:33.527Z,10.41
2022-10-20T18:56:01.170Z,10.43
2022-10-20T18:58:31.257Z,10.41
2022-10-20T19:00:59.597Z,10.33
2022-10-20T19:03:26.462Z,10.22
2022-10-20T19:05:57.801Z,10.03
2022-10-20T19:08:24.352Z,9.95
2022-10-20T19:10:50.913Z,9.84
2022-10-20T19:13:17.460Z,9.84
2022-10-20T19:15:45.432Z,9.84
2022-10-20T19:18:11.985Z,9.82
2022-10-20T19:20:38.525Z,9.76
2022-10-20T19:23:05.109Z,9.84
2022-10-20T19:25:31.678Z,9.86
2022-10-20T19:27:58.622Z,9.94
2022-10-20T19:30:25.191Z,9.92
2022-10-20T19:32:53.113Z,9.94
2022-10-20T19:35:19.663Z,9.81
2022-10-20T19:37:46.229Z,9.72
2022-10-20T19:40:12.791Z,9.75
2022-10-20T19:42:39.575Z,9.78
2022-10-20T19:45:06.982Z,9.79
2022-10-20T19:47:33.583Z,9.86
2022-10-20T19:50:01.541Z,9.91
2022-10-20T19:52:28.196Z,9.92
2022-10-20T19:54:54.749Z,9.87
2022-10-20T19:57:21.303Z,9.86
2022-10-20T19:59:47.861Z,9.81
2022-10-20T20:02:14.430Z,9.80
2022-10-20T20:04:41.090Z,9.80
2022-10-20T20:07:09.053Z,9.70
2022-10-20T20:09:35.625Z,9.69
2022-10-20T20:12:02.183Z,9.71
2022-10-20T20:14:28.843Z,9.60
2022-10-20T20:16:55.424Z,9.59
2022-10-20T20:19:21.994Z,9.64
2022-10-20T20:21:48.533Z,9.65
2022-10-20T20:24:16.405Z,9.63
2022-10-20T20:26:43.355Z,9.68
2022-10-20T20:29:10.141Z,9.63
2022-10-20T20:31:36.788Z,9.65
2022-10-20T20:34:03.382Z,9.70
2022-10-20T20:36:30.222Z,9.60
2022-10-20T20:38:59.118Z,9.53
2022-10-20T20:41:28.721Z,9.53
2022-10-20T20:43:55.498Z,9.51
2022-10-20T20:46:23.819Z,9.57
2022-10-20T20:48:50.603Z,9.58
2022-10-20T20:51:17.333Z,9.57
2022-10-20T20:53:43.912Z,9.49
2022-10-20T20:56:12.565Z,9.60
2022-10-20T20:58:41.253Z,9.67
2022-10-20T21:01:11.214Z,9.76
2022-10-20T21:03:37.841Z,9.74
2022-10-20T21:06:05.682Z,9.73
2022-10-20T21:08:32.771Z,9.67
2022-10-20T21:11:05.173Z,9.64
2022-10-20T21:13:31.858Z,9.65
2022-10-20T21:16:08.997Z,9.62
2022-10-20T21:18:35.555Z,9.59
2022-10-20T21:21:07.264Z,9.59
2022-10-20T21:23:33.933Z,9.56
2022-10-20T21:26:00.472Z,9.51
2022-10-20T21:28:27.034Z,9.53
2022-10-20T21:30:55.241Z,9.62
2022-10-20T21:33:26.491Z,9.66
2022-10-20T21:35:53.122Z,9.73
2022-10-20T21:38:19.664Z,9.76
2022-10-20T21:40:46.211Z,9.75
2022-10-20T21:43:12.762Z,9.80
2022-10-20T21:45:39.317Z,9.73
2022-10-20T21:48:06.123Z,9.69
2022-10-20T21:50:36.301Z,9.78
2022-10-20T21:53:02.921Z,9.78
2022-10-20T21:55:29.445Z,9.80
2022-10-20T21:57:56.016Z,9.73
2022-10-20T22:00:23.947Z,9.74
2022-10-20T22:02:50.646Z,9.78
2022-10-20T22:05:17.211Z,9.76
2022-10-20T22:07:45.109Z,9.80
2022-10-20T22:10:11.651Z,9.84
2022-10-20T22:12:38.356Z,9.89
2022-10-20T22:15:05.739Z,9.92
2022-10-20T22:17:32.299Z,9.97
2022-10-20T22:19:58.834Z,9.93
2022-10-20T22:22:25.374Z,9.93
2022-10-20T22:24:53.254Z,9.91
2022-10-20T22:27:31.317Z,9.88
2022-10-20T22:30:07.622Z,9.89
2022-10-20T22:32:34.282Z,9.84
2022-10-20T22:35:00.877Z,9.68
2022-10-20T22:37:27.443Z,9.72
2022-10-20T22:39:55.455Z,9.75
2022-10-20T22:42:24.113Z,9.83
2022-10-20T22:44:51.560Z,9.83
2022-10-20T22:47:18.150Z,9.79
2022-10-20T22:49:44.680Z,9.83
2022-10-20T22:52:11.257Z,9.84
2022-10-20T22:54:37.864Z,9.81
2022-10-20T22:57:05.986Z,9.79
2022-10-20T22:59:32.503Z,9.78
2022-10-20T23:01:59.063Z,9.87
2022-10-20T23:04:25.780Z,9.86
2022-10-20T23:06:52.343Z,9.87
2022-10-20T23:09:18.973Z,9.87
2022-10-20T23:11:45.562Z,9.85
2022-10-20T23:14:13.491Z,9.86
2022-10-20T23:16:40.136Z,9.82
2022-10-20T23:19:06.672Z,9.86
2022-10-20T23:21:33.261Z,9.93
2022-10-20T23:23:59.804Z,9.89
2022-10-20T23:26:26.733Z,9.89
2022-10-20T23:28:53.308Z,9.91
2022-10-20T23:31:22.475Z,9.89
2022-10-20T23:33:53.664Z,9.75
2022-10-20T23:36:20.320Z,9.77
2022-10-20T23:38:46.941Z,9.80
2022-10-20T23:41:13.817Z,9.80
2022-10-20T23:43:40.790Z,9.87
2022-10-20T23:46:07.810Z,9.92
2022-10-20T23:48:35.848Z,9.95
2022-10-20T23:51:02.400Z,9.94
2022-10-20T23:53:29.088Z,9.90
2022-10-20T23:55:55.630Z,9.79
2022-10-20T23:58:22.416Z,9.85
